NEW HOGAN LAKE (NHG)

Elevation: 554' · CALAVERAS R basin · Operator: US Army Corps of Engineers

Provisional data, subject to change.
Query executed Thursday at 7:02:55   clock

Select a sensor type for a plot of data.
Note: Reservoir Flows are daily averages.

Earlier

Date RES ELE    STORAGE    RES CHG    TOC STO    ABV TOC    OUTFLOW    INFLOW    FNF    PPT INC    TEMP MN    TEMP MX   
 FEET   AF   AF   AF   AF   CFS   CFS   CFS   INCHES   DEG F   DEG F  
07/01/2015 619.12 50862 -860 317100 -266238 419 5 5 0.00 24 42
07/02/2015 618.76 50323 -539 317100 -266777 290 35 35 0.00 25 37
07/03/2015 618.38 49757 -566 317100 -267343 285 19 19 0.00 21 37
07/04/2015 617.95 49122 -635 317100 -267978 321 11 20 0.00 19 38
07/05/2015 617.61 48624 -498 317100 -268476 260 26 26 0.00 19 32
07/06/2015 617.27 48128 -496 317100 -268972 235 1 1 0.00 16 32
07/07/2015 616.89 47578 -550 317100 -269522 274 11 11 0.00 17 31
07/08/2015 616.63 47203 -375 317100 -269897 199 24 24 0.00 16 30
07/09/2015 616.36 46817 -386 317100 -270283 178 -4 -4 0.00 15 28
07/10/2015 616.18 46560 -257 317100 -270540 139 19 19 0.00 15 28
07/11/2015 616.14 46503 -57 317100 -270597 19 4 5 0.00 14 30
07/12/2015 616.07 46403 -86 317100 -270683 26 -11 -4 0.00 16 30
07/13/2015 616.01 46318 -71 317100 -270754 26 -1 6 0.00 16 33
07/14/2015 615.95 46233 -- 317100 -270867 27 -1 -- 0.00 17 33
07/15/2015 615.90 46162 -71 317100 -270938 27 7 7 0.00 15 35
07/16/2015 615.87 46119 -43 317100 -270981 27 22 22 0.00 20 36
07/17/2015 615.80 46020 -99 317100 -271080 33 1 1 0.00 20 36
07/18/2015 615.68 45851 -169 317100 -271249 55 -15 -15 0.00 19 36
07/19/2015 615.59 45724 -127 317100 -271376 68 19 19 0.00 17 35
07/20/2015 615.48 45569 -155 317100 -271531 61 -1 -1 0.00 21 36
07/21/2015 615.41 45471 -98 317100 -271629 54 21 21 0.00 22 36
07/22/2015 615.28 45288 -183 317100 -271812 54 -23 -23 0.00 18 32
07/23/2015 615.21 45190 -98 317100 -271910 54 19 19 0.00 14 31
07/24/2015 615.11 45051 -139 317100 -272049 54 -0 0 0.00 14 33
07/25/2015 615.02 44925 -126 317100 -272175 54 7 7 0.00 16 33
07/26/2015 614.92 44786 -139 317100 -272314 54 -3 -3 0.00 16 34
07/27/2015 614.80 44619 -167 317100 -272481 52 -15 -15 0.00 16 35
07/28/2015 614.74 44536 -83 317100 -272564 51 26 26 0.00 18 39
07/29/2015 614.62 44369 -167 317100 -272731 51 -15 -- 0.00 19 41
07/30/2015 -- -- -- -- -- -- -- -- -- -- --

Later | Latest

Warning! This data is preliminary and subject to revision.

Show NHG Map | Plot NHG Data | 1 Month NHG Data | Real-Time NHG Data | NHG Info